sensor_id;sensor_type;location;lat;lon;timestamp;P1;durP1;ratioP1;P2;durP2;ratioP2
28068;SDS011;15382;47.578;8.086;2022-09-03T00:04:40;5.53;;;2.90;;
28068;SDS011;15382;47.578;8.086;2022-09-03T00:14:47;5.60;;;3.65;;
28068;SDS011;15382;47.578;8.086;2022-09-03T00:24:52;3.65;;;3.08;;
28068;SDS011;15382;47.578;8.086;2022-09-03T00:34:57;8.95;;;3.72;;
28068;SDS011;15382;47.578;8.086;2022-09-03T01:26:28;7.60;;;5.00;;
28068;SDS011;15382;47.578;8.086;2022-09-03T01:47:01;13.55;;;6.38;;
28068;SDS011;15382;47.578;8.086;2022-09-03T02:17:43;5.68;;;4.10;;
28068;SDS011;15382;47.578;8.086;2022-09-03T02:27:47;7.10;;;4.88;;
28068;SDS011;15382;47.578;8.086;2022-09-03T02:37:49;7.15;;;4.57;;
28068;SDS011;15382;47.578;8.086;2022-09-03T02:47:51;11.03;;;4.93;;
28068;SDS011;15382;47.578;8.086;2022-09-03T02:57:57;5.95;;;4.50;;
28068;SDS011;15382;47.578;8.086;2022-09-03T03:18:00;6.30;;;4.40;;
28068;SDS011;15382;47.578;8.086;2022-09-03T03:28:01;7.53;;;4.83;;
28068;SDS011;15382;47.578;8.086;2022-09-03T03:38:03;7.55;;;5.57;;
28068;SDS011;15382;47.578;8.086;2022-09-03T03:48:04;6.37;;;5.23;;
28068;SDS011;15382;47.578;8.086;2022-09-03T03:58:05;11.00;;;7.27;;
28068;SDS011;15382;47.578;8.086;2022-09-03T04:08:05;13.67;;;7.90;;
28068;SDS011;15382;47.578;8.086;2022-09-03T04:18:07;8.05;;;6.00;;
28068;SDS011;15382;47.578;8.086;2022-09-03T04:28:08;11.93;;;7.67;;
28068;SDS011;15382;47.578;8.086;2022-09-03T04:38:08;10.40;;;6.67;;
28068;SDS011;15382;47.578;8.086;2022-09-03T04:48:10;11.77;;;6.82;;
28068;SDS011;15382;47.578;8.086;2022-09-03T04:58:12;10.05;;;6.32;;
28068;SDS011;15382;47.578;8.086;2022-09-03T05:08:13;13.37;;;7.37;;
28068;SDS011;15382;47.578;8.086;2022-09-03T05:18:14;13.50;;;7.60;;
28068;SDS011;15382;47.578;8.086;2022-09-03T05:28:15;13.47;;;8.57;;
28068;SDS011;15382;47.578;8.086;2022-09-03T05:38:15;16.17;;;9.10;;
28068;SDS011;15382;47.578;8.086;2022-09-03T05:48:17;19.77;;;11.67;;
28068;SDS011;15382;47.578;8.086;2022-09-03T05:58:17;17.83;;;10.03;;
28068;SDS011;15382;47.578;8.086;2022-09-03T06:08:19;18.87;;;9.73;;
28068;SDS011;15382;47.578;8.086;2022-09-03T06:18:20;15.73;;;8.82;;
28068;SDS011;15382;47.578;8.086;2022-09-03T06:28:22;13.40;;;8.88;;
28068;SDS011;15382;47.578;8.086;2022-09-03T06:38:26;12.13;;;7.00;;
28068;SDS011;15382;47.578;8.086;2022-09-03T06:48:29;11.82;;;7.90;;
28068;SDS011;15382;47.578;8.086;2022-09-03T06:58:35;9.40;;;6.03;;
28068;SDS011;15382;47.578;8.086;2022-09-03T07:08:37;11.10;;;6.15;;
28068;SDS011;15382;47.578;8.086;2022-09-03T07:18:38;9.57;;;7.53;;
28068;SDS011;15382;47.578;8.086;2022-09-03T07:28:40;15.40;;;8.53;;
28068;SDS011;15382;47.578;8.086;2022-09-03T07:38:42;10.43;;;6.95;;
28068;SDS011;15382;47.578;8.086;2022-09-03T07:48:45;11.45;;;7.10;;
28068;SDS011;15382;47.578;8.086;2022-09-03T07:58:46;8.95;;;5.80;;
28068;SDS011;15382;47.578;8.086;2022-09-03T08:08:47;6.83;;;4.50;;
28068;SDS011;15382;47.578;8.086;2022-09-03T08:18:53;7.82;;;4.13;;
28068;SDS011;15382;47.578;8.086;2022-09-03T08:28:54;5.23;;;3.50;;
28068;SDS011;15382;47.578;8.086;2022-09-03T08:38:55;6.73;;;2.77;;
28068;SDS011;15382;47.578;8.086;2022-09-03T08:48:57;5.57;;;3.10;;
28068;SDS011;15382;47.578;8.086;2022-09-03T08:58:59;3.40;;;2.75;;
28068;SDS011;15382;47.578;8.086;2022-09-03T09:29:17;7.15;;;2.20;;
28068;SDS011;15382;47.578;8.086;2022-09-03T09:39:18;6.87;;;2.80;;
28068;SDS011;15382;47.578;8.086;2022-09-03T09:49:30;5.43;;;3.25;;
28068;SDS011;15382;47.578;8.086;2022-09-03T09:59:34;5.10;;;3.40;;
28068;SDS011;15382;47.578;8.086;2022-09-03T10:09:37;6.45;;;3.53;;
28068;SDS011;15382;47.578;8.086;2022-09-03T10:30:22;4.03;;;2.40;;
28068;SDS011;15382;47.578;8.086;2022-09-03T11:01:13;4.82;;;2.40;;
28068;SDS011;15382;47.578;8.086;2022-09-03T11:11:40;5.25;;;1.83;;
28068;SDS011;15382;47.578;8.086;2022-09-03T11:21:46;2.35;;;1.30;;
28068;SDS011;15382;47.578;8.086;2022-09-03T11:42:02;0.90;;;0.60;;
28068;SDS011;15382;47.578;8.086;2022-09-03T11:52:26;1.08;;;0.80;;
28068;SDS011;15382;47.578;8.086;2022-09-03T12:02:28;2.83;;;0.70;;
28068;SDS011;15382;47.578;8.086;2022-09-03T12:22:54;4.47;;;0.85;;
28068;SDS011;15382;47.578;8.086;2022-09-03T12:33:06;5.45;;;1.17;;
28068;SDS011;15382;47.578;8.086;2022-09-03T12:43:11;1.27;;;0.93;;
28068;SDS011;15382;47.578;8.086;2022-09-03T12:53:16;1.10;;;0.77;;
28068;SDS011;15382;47.578;8.086;2022-09-03T13:03:28;1.17;;;0.90;;
28068;SDS011;15382;47.578;8.086;2022-09-03T13:13:47;2.88;;;1.10;;
28068;SDS011;15382;47.578;8.086;2022-09-03T13:34:53;3.00;;;1.50;;
28068;SDS011;15382;47.578;8.086;2022-09-03T14:05:49;2.03;;;1.10;;
28068;SDS011;15382;47.578;8.086;2022-09-03T14:16:23;2.47;;;0.70;;
28068;SDS011;15382;47.578;8.086;2022-09-03T14:26:50;2.80;;;1.00;;
28068;SDS011;15382;47.578;8.086;2022-09-03T14:47:42;2.53;;;1.00;;
28068;SDS011;15382;47.578;8.086;2022-09-03T14:58:11;1.65;;;0.98;;
28068;SDS011;15382;47.578;8.086;2022-09-03T15:39:30;1.73;;;1.40;;
28068;SDS011;15382;47.578;8.086;2022-09-03T15:49:46;4.00;;;1.25;;
28068;SDS011;15382;47.578;8.086;2022-09-03T16:10:18;4.90;;;2.00;;
28068;SDS011;15382;47.578;8.086;2022-09-03T16:20:24;5.30;;;1.90;;
28068;SDS011;15382;47.578;8.086;2022-09-03T16:31:09;2.40;;;1.80;;
28068;SDS011;15382;47.578;8.086;2022-09-03T17:32:07;4.78;;;2.45;;
28068;SDS011;15382;47.578;8.086;2022-09-03T18:03:00;7.55;;;5.25;;
28068;SDS011;15382;47.578;8.086;2022-09-03T18:23:31;5.20;;;3.13;;
28068;SDS011;15382;47.578;8.086;2022-09-03T18:34:02;5.75;;;3.35;;
28068;SDS011;15382;47.578;8.086;2022-09-03T22:18:33;4.40;;;3.03;;
28068;SDS011;15382;47.578;8.086;2022-09-03T22:28:41;8.07;;;3.53;;
28068;SDS011;15382;47.578;8.086;2022-09-03T23:47:40;8.23;;;3.50;;
